0A8 weather

Bibb County Airport
Centreville, Alabama, United States

Public forecast

Using degrees Fahrenheit for public forecast. Weather courtesy of forecast.io.

METAR (pilot weather report)

Closest report is Shelby County Airport, 21.1 nm (39.1 km) NE. Retrieved 2019/08/26 06:25 UTC (34 minutes ago):

KEET 260625Z AUTO 13006KT 7SM -RA BKN007 OVC012 22/21 A2997 RMK AO2 CIG 005V010 P0000 T02220211

TAF (pilot weather forecast)

Closest forecast is Shelby County Airport, 21.1 nm (39.1 km) NE. Retrieved 2019/08/26 06:34 UTC (25 minutes ago):

TAF KEET 260532Z 2606/2706 11006KT 6SM -RA OVC006 FM260800 13007KT P6SM VCSH OVC007 FM261600 14009KT P6SM VCSH OVC012